createdAt,value
2017-05-12T00:00:31.716Z,64.34
2017-05-12T00:01:32.979Z,64.82
2017-05-12T00:02:34.370Z,64.43
2017-05-12T00:03:35.629Z,64.53
2017-05-12T00:04:36.927Z,64.34
2017-05-12T00:05:38.277Z,64.53
2017-05-12T00:06:39.534Z,64.72
2017-05-12T00:07:40.818Z,64.63
2017-05-12T00:08:42.065Z,64.82
2017-05-12T00:09:43.340Z,65.01
2017-05-12T00:10:44.717Z,64.72
2017-05-12T00:11:45.982Z,64.92
2017-05-12T00:12:47.218Z,65.11
2017-05-12T00:13:48.473Z,65.49
2017-05-12T00:14:49.728Z,65.3
2017-05-12T00:15:51.073Z,65.59
2017-05-12T00:16:52.380Z,65.01
2017-05-12T00:17:53.624Z,65.01
2017-05-12T00:18:54.897Z,65.2
2017-05-12T00:19:56.148Z,65.3
2017-05-12T00:20:57.422Z,65.49
2017-05-12T00:21:58.690Z,65.3
2017-05-12T00:23:00.017Z,65.3
2017-05-12T00:24:01.216Z,65.3
2017-05-12T00:25:02.481Z,65.2
2017-05-12T00:26:03.771Z,65.2
2017-05-12T00:27:05.022Z,65.59
2017-05-12T00:28:06.304Z,65.11
2017-05-12T00:29:07.537Z,65.3
2017-05-12T00:30:08.900Z,65.3
2017-05-12T00:31:10.162Z,65.39
2017-05-12T00:32:11.452Z,65.49
2017-05-12T00:33:12.722Z,65.59
2017-05-12T00:34:14.006Z,65.11
2017-05-12T00:35:15.243Z,65.2
2017-05-12T00:36:16.517Z,65.68
2017-05-12T00:37:17.775Z,65.3
2017-05-12T00:38:19.015Z,65.59
2017-05-12T00:39:20.369Z,65.78
2017-05-12T00:40:21.640Z,65.88
2017-05-12T00:41:22.917Z,65.59
2017-05-12T00:42:24.178Z,66.35
2017-05-12T00:43:25.504Z,65.68
2017-05-12T00:44:26.848Z,66.16
2017-05-12T00:45:28.177Z,65.88
2017-05-12T00:46:29.440Z,66.35
2017-05-12T00:47:30.693Z,66.13
2017-05-12T00:48:31.950Z,66.13
2017-05-12T00:49:33.157Z,66.35
2017-05-12T00:50:34.427Z,66.74
2017-05-12T00:51:35.675Z,66.64
2017-05-12T00:52:36.947Z,66.32
2017-05-12T00:53:38.182Z,66.35
2017-05-12T00:54:39.441Z,66.45
2017-05-12T00:55:40.730Z,66.61
2017-05-12T00:56:42.001Z,66.55
2017-05-12T00:57:43.260Z,66.55
2017-05-12T00:58:44.506Z,66.45
2017-05-12T00:59:45.771Z,66.64
2017-05-12T01:00:47.040Z,66.35
2017-05-12T01:01:48.379Z,66.55
2017-05-12T01:02:49.630Z,66.55
2017-05-12T01:03:50.975Z,66.55
2017-05-12T01:04:52.246Z,66.35
2017-05-12T01:05:53.523Z,66.42
2017-05-12T01:06:54.808Z,66.51
2017-05-12T01:07:56.068Z,66.35
2017-05-12T01:08:57.329Z,66.26
2017-05-12T01:09:58.657Z,66.55
2017-05-12T01:10:59.935Z,66.64
2017-05-12T01:12:01.222Z,66.45
2017-05-12T01:13:02.449Z,66.83
2017-05-12T01:14:03.698Z,66.64
2017-05-12T01:15:04.967Z,66.55
2017-05-12T01:16:06.319Z,66.71
2017-05-12T01:17:07.487Z,66.61
2017-05-12T01:18:08.754Z,66.89
2017-05-12T01:19:10.002Z,67.38
2017-05-12T01:20:11.246Z,67.09
2017-05-12T01:21:12.555Z,67.38
2017-05-12T01:22:13.805Z,67.18
2017-05-12T01:23:15.183Z,67.18
2017-05-12T01:24:16.488Z,67.57
2017-05-12T01:25:17.785Z,67.95
2017-05-12T01:26:19.056Z,67.47
2017-05-12T01:27:20.341Z,67.66
2017-05-12T01:28:21.613Z,67.76
2017-05-12T01:29:22.848Z,67.66
2017-05-12T01:30:24.150Z,68.14
2017-05-12T01:31:25.383Z,67.95
2017-05-12T01:32:26.672Z,68.33
2017-05-12T01:33:27.941Z,68.24
2017-05-12T01:34:29.307Z,68.33
2017-05-12T01:35:30.565Z,68.43
2017-05-12T01:36:31.860Z,68.24
2017-05-12T01:37:33.146Z,68.72
2017-05-12T01:38:34.474Z,68.72
2017-05-12T01:39:35.745Z,68.91
2017-05-12T01:40:37.046Z,68.91
2017-05-12T01:41:38.305Z,69.2
2017-05-12T01:42:39.566Z,69.48
2017-05-12T01:43:40.813Z,69.58
2017-05-12T01:44:42.079Z,69.68
2017-05-12T01:45:43.381Z,69.29
2017-05-12T01:46:44.682Z,69.48
2017-05-12T01:47:45.992Z,69.87
2017-05-12T01:48:47.268Z,69.87
2017-05-12T01:49:48.545Z,69.68
2017-05-12T01:50:49.833Z,69.96
2017-05-12T01:51:51.228Z,69.96
2017-05-12T01:52:52.526Z,70.44
2017-05-12T01:53:53.810Z,70.06
2017-05-12T01:54:55.057Z,70.6
2017-05-12T01:55:56.360Z,70.6
2017-05-12T01:56:57.593Z,70.6
2017-05-12T01:57:58.883Z,71.08
2017-05-12T01:59:00.237Z,70.89
2017-05-12T02:00:01.502Z,71.27
2017-05-12T02:01:02.873Z,71.84
2017-05-12T02:02:04.140Z,71.46
2017-05-12T02:03:05.514Z,71.84
2017-05-12T02:04:06.782Z,72.42
2017-05-12T02:05:08.106Z,72.32
2017-05-12T02:06:09.329Z,72.03
2017-05-12T02:07:10.584Z,72.32
2017-05-12T02:08:11.831Z,72.32
2017-05-12T02:09:13.121Z,72.52
2017-05-12T02:10:14.360Z,72.52
2017-05-12T02:11:15.660Z,72.42
2017-05-12T02:12:16.982Z,72.32
2017-05-12T02:13:18.179Z,72.8
2017-05-12T02:14:19.453Z,72.13
2017-05-12T02:15:20.722Z,72.8
2017-05-12T02:16:22.038Z,72.99
2017-05-12T02:17:23.307Z,73.19
2017-05-12T02:18:24.568Z,73.38
2017-05-12T02:19:25.822Z,73.38
2017-05-12T02:20:27.151Z,73.38
2017-05-12T02:21:28.568Z,73.47
2017-05-12T02:22:29.820Z,74.05
2017-05-12T02:23:31.071Z,73.95
2017-05-12T02:24:32.312Z,73.66
2017-05-12T02:25:33.553Z,74.43
2017-05-12T02:26:34.829Z,74.33
2017-05-12T02:27:36.222Z,74.15
2017-05-12T02:28:37.525Z,74.77
2017-05-12T02:29:38.882Z,74.49
2017-05-12T02:30:40.113Z,74.87
2017-05-12T02:31:41.367Z,75.07
2017-05-12T02:32:42.650Z,75.07
2017-05-12T02:33:43.977Z,74.68
2017-05-12T02:34:45.263Z,74.58
2017-05-12T02:35:46.482Z,74.77
2017-05-12T02:36:47.748Z,75.16
2017-05-12T02:37:48.998Z,75.35
2017-05-12T02:38:50.281Z,75.35
2017-05-12T02:39:51.560Z,75.35
2017-05-12T02:40:52.780Z,75.64
2017-05-12T02:41:54.044Z,75.83
2017-05-12T02:42:55.331Z,76.5
2017-05-12T02:43:56.606Z,76.12
2017-05-12T02:44:57.881Z,76.6
2017-05-12T02:45:59.129Z,76.79
2017-05-12T02:47:00.387Z,77.65
2017-05-12T02:48:01.672Z,77.36
2017-05-12T02:49:02.951Z,77.08
2017-05-12T02:50:04.214Z,77.46
2017-05-12T02:51:05.453Z,78.13
2017-05-12T02:52:06.766Z,78.42
2017-05-12T02:53:08.140Z,78.51
2017-05-12T02:54:09.407Z,78.22
2017-05-12T02:55:10.713Z,78.32
2017-05-12T02:56:11.986Z,78.7
2017-05-12T02:57:13.237Z,79.47
2017-05-12T02:58:14.506Z,78.89
2017-05-12T02:59:15.778Z,79.57
2017-05-12T03:00:17.071Z,79.66
2017-05-12T03:01:18.291Z,79.72
2017-05-12T03:02:19.595Z,79.81
2017-05-12T03:03:20.996Z,80.19
2017-05-12T03:04:22.348Z,80.58
2017-05-12T03:05:23.637Z,80.38
2017-05-12T03:06:24.988Z,80.38
2017-05-12T03:07:26.322Z,81.25
2017-05-12T03:08:27.578Z,81.05
2017-05-12T03:09:29.080Z,81.05
2017-05-12T03:10:30.300Z,81.05
2017-05-12T03:11:31.544Z,81.63
2017-05-12T03:12:32.813Z,81.34
2017-05-12T03:13:34.071Z,82.01
2017-05-12T03:14:35.335Z,82.4
2017-05-12T03:15:36.572Z,82.11
2017-05-12T03:16:37.857Z,82.49
2017-05-12T03:17:39.114Z,82.4
2017-05-12T03:18:40.410Z,82.59
2017-05-12T03:19:41.716Z,83.16
2017-05-12T03:20:42.946Z,82.97
2017-05-12T03:21:44.201Z,83.06
2017-05-12T03:22:45.505Z,83.16
2017-05-12T03:23:46.769Z,83.64
2017-05-12T03:24:48.024Z,83.5
2017-05-12T03:25:49.390Z,83.93
2017-05-12T03:26:50.653Z,83.98
2017-05-12T03:27:51.874Z,84.75
2017-05-12T03:28:53.120Z,84.08
2017-05-12T03:29:54.378Z,84.08
2017-05-12T03:30:55.651Z,83.89
2017-05-12T03:31:56.922Z,83.98
2017-05-12T03:32:58.157Z,83.79
2017-05-12T03:33:59.423Z,84.36
2017-05-12T03:35:00.669Z,84.75
2017-05-12T03:36:01.932Z,84.84
2017-05-12T03:37:03.187Z,84.75
2017-05-12T03:38:04.444Z,84.55
2017-05-12T03:39:05.722Z,84.94
2017-05-12T03:40:06.998Z,85.22
2017-05-12T03:41:08.245Z,84.94
2017-05-12T03:42:09.492Z,85.13
2017-05-12T03:43:10.774Z,85.13
2017-05-12T03:44:12.039Z,84.94
2017-05-12T03:45:13.311Z,84.84
2017-05-12T03:46:14.559Z,85.41
2017-05-12T03:47:15.827Z,85.13
2017-05-12T03:48:17.088Z,85.13
2017-05-12T03:49:18.364Z,85.99
2017-05-12T03:50:19.621Z,85.71
2017-05-12T03:51:20.899Z,85.8
2017-05-12T03:52:22.220Z,86.08
2017-05-12T03:53:23.488Z,86.57
2017-05-12T03:54:24.726Z,86.18
2017-05-12T03:55:25.972Z,86.08
2017-05-12T03:56:27.213Z,85.61
2017-05-12T03:57:28.622Z,85.8
2017-05-12T03:58:29.883Z,85.8
2017-05-12T03:59:31.143Z,86.08
2017-05-12T04:00:32.415Z,85.71
2017-05-12T04:01:33.680Z,85.8
2017-05-12T04:02:34.927Z,85.71
2017-05-12T04:03:36.279Z,85.71
2017-05-12T04:04:37.605Z,85.51
2017-05-12T04:05:38.899Z,85.8
2017-05-12T04:06:40.141Z,86.08
2017-05-12T04:07:41.387Z,85.41
2017-05-12T04:08:42.653Z,85.32
2017-05-12T04:09:43.949Z,85.22
2017-05-12T04:10:45.189Z,85.22
2017-05-12T04:11:46.435Z,85.32
2017-05-12T04:12:47.673Z,85.32
2017-05-12T04:13:48.929Z,85.13
2017-05-12T04:14:50.187Z,85.99
2017-05-12T04:15:51.428Z,85.22
2017-05-12T04:16:52.797Z,85.89
2017-05-12T04:17:54.071Z,85.99
2017-05-12T04:18:55.347Z,85.41
2017-05-12T04:19:56.681Z,86.08
2017-05-12T04:20:57.958Z,84.94
2017-05-12T04:21:59.252Z,85.41
2017-05-12T04:23:00.550Z,85.99
2017-05-12T04:24:01.819Z,85.32
2017-05-12T04:25:03.121Z,85.22
2017-05-12T04:26:04.544Z,85.22
2017-05-12T04:27:05.776Z,85.13
2017-05-12T04:28:07.016Z,84.94
2017-05-12T04:29:08.329Z,84.84
2017-05-12T04:30:09.570Z,84.75
2017-05-12T04:31:10.972Z,84.75
2017-05-12T04:32:12.401Z,84.46
2017-05-12T04:33:13.622Z,84.84
2017-05-12T04:34:14.858Z,84.75
2017-05-12T04:35:16.103Z,84.17
2017-05-12T04:36:17.348Z,84.17
2017-05-12T04:37:18.648Z,84.65
2017-05-12T04:38:19.910Z,84.79
2017-05-12T04:39:21.172Z,84.65
2017-05-12T04:40:22.410Z,84.36
2017-05-12T04:41:23.678Z,84.27
2017-05-12T04:42:24.935Z,84.08
2017-05-12T04:43:26.197Z,84.46
2017-05-12T04:44:27.441Z,84.94
2017-05-12T04:45:28.811Z,83.89
2017-05-12T04:46:30.104Z,84.12
2017-05-12T04:47:31.374Z,83.64
2017-05-12T04:48:32.617Z,83.83
2017-05-12T04:49:33.892Z,83.64
2017-05-12T04:50:35.190Z,83.64
2017-05-12T04:51:36.496Z,83.73
2017-05-12T04:52:37.787Z,83.26
2017-05-12T04:53:39.053Z,83.16
2017-05-12T04:54:40.360Z,83.45
2017-05-12T04:55:41.583Z,83.16
2017-05-12T04:56:42.861Z,83.16
2017-05-12T04:57:44.112Z,83.73
2017-05-12T04:58:45.438Z,83.93
2017-05-12T04:59:46.691Z,84.5
2017-05-12T05:00:47.939Z,84.5
2017-05-12T05:01:49.264Z,84.69
2017-05-12T05:02:50.554Z,84.79
2017-05-12T05:03:51.808Z,84.69
2017-05-12T05:04:53.037Z,84.88
2017-05-12T05:05:54.331Z,85.84
2017-05-12T05:06:55.545Z,85.32
2017-05-12T05:07:56.841Z,85.22
2017-05-12T05:08:58.172Z,85.22
2017-05-12T05:09:59.413Z,85.32
2017-05-12T05:11:00.664Z,85.51
2017-05-12T05:12:01.917Z,85.71
2017-05-12T05:13:03.185Z,85.61
2017-05-12T05:14:04.487Z,85.94
2017-05-12T05:15:05.748Z,86.57
2017-05-12T05:16:07.047Z,86.94
2017-05-12T05:17:08.294Z,87.08
2017-05-12T05:18:09.540Z,87.14
2017-05-12T05:19:10.790Z,87.14
2017-05-12T05:20:12.030Z,86.85
2017-05-12T05:21:13.317Z,87.23
2017-05-12T05:22:14.619Z,86.85
2017-05-12T05:23:15.864Z,87.43
2017-05-12T05:24:17.145Z,87.52
2017-05-12T05:25:18.406Z,86.85
2017-05-12T05:26:19.657Z,87.14
2017-05-12T05:27:20.892Z,88
2017-05-12T05:28:22.253Z,88
2017-05-12T05:29:23.536Z,88.38
2017-05-12T05:30:24.787Z,88.29
2017-05-12T05:31:26.056Z,88
2017-05-12T05:32:27.277Z,88.19
2017-05-12T05:33:28.547Z,88
2017-05-12T05:34:29.820Z,88.19
2017-05-12T05:35:31.082Z,88.19
2017-05-12T05:36:32.325Z,88.19
2017-05-12T05:37:33.608Z,87.71
2017-05-12T05:38:34.903Z,87.81
2017-05-12T05:39:36.172Z,88.23
2017-05-12T05:40:37.450Z,87.85
2017-05-12T05:41:38.740Z,87.56
2017-05-12T05:42:39.993Z,87.18
2017-05-12T05:43:41.252Z,86.76
2017-05-12T05:44:42.538Z,87.66
2017-05-12T05:45:43.820Z,86.7
2017-05-12T05:46:45.109Z,87.56
2017-05-12T05:47:46.461Z,87.27
2017-05-12T05:48:47.743Z,87.85
2017-05-12T05:49:48.977Z,87.76
2017-05-12T05:50:50.222Z,88.23
2017-05-12T05:51:51.573Z,87.66
2017-05-12T05:52:52.858Z,87.66
2017-05-12T05:53:54.113Z,87.37
2017-05-12T05:54:55.386Z,87.85
2017-05-12T05:55:56.667Z,87.08
2017-05-12T05:56:57.888Z,87.66
2017-05-12T05:57:59.125Z,87.56
2017-05-12T05:59:00.520Z,87.95
2017-05-12T06:00:01.854Z,88.23
2017-05-12T06:01:03.160Z,88.23
2017-05-12T06:02:04.419Z,87.66
2017-05-12T06:03:05.664Z,87.18
2017-05-12T06:04:06.950Z,87.66
2017-05-12T06:05:08.373Z,88.23
2017-05-12T06:06:09.638Z,88.13
2017-05-12T06:07:10.937Z,88.04
2017-05-12T06:08:12.153Z,88.23
2017-05-12T06:09:13.409Z,88.52
2017-05-12T06:10:14.781Z,88.86
2017-05-12T06:11:16.094Z,88.95
2017-05-12T06:12:17.325Z,88.86
2017-05-12T06:13:18.616Z,89.43
2017-05-12T06:14:19.881Z,89.24
2017-05-12T06:15:21.136Z,89.81
2017-05-12T06:16:22.424Z,90.1
2017-05-12T06:17:23.705Z,90.2
2017-05-12T06:18:24.962Z,90.58
2017-05-12T06:19:26.244Z,91.25
2017-05-12T06:20:27.503Z,92.02
2017-05-12T06:21:28.791Z,91.83
2017-05-12T06:22:30.072Z,92.59
2017-05-12T06:23:31.340Z,93.07
2017-05-12T06:24:32.591Z,93.07
2017-05-12T06:25:33.868Z,92.3
2017-05-12T06:26:35.108Z,92.49
2017-05-12T06:27:36.439Z,93.07
2017-05-12T06:28:37.700Z,92.97
2017-05-12T06:29:38.947Z,93.07
2017-05-12T06:30:40.198Z,93.55
2017-05-12T06:31:41.433Z,93.74
2017-05-12T06:32:42.749Z,93.64
2017-05-12T06:33:43.987Z,93.45
2017-05-12T06:34:45.244Z,93.88
2017-05-12T06:35:46.509Z,93.98
2017-05-12T06:36:47.825Z,94.65
2017-05-12T06:37:49.114Z,94.26
2017-05-12T06:38:50.370Z,94.79
2017-05-12T06:39:51.623Z,95.51
2017-05-12T06:40:52.888Z,94.93
2017-05-12T06:41:54.264Z,95.32
2017-05-12T06:42:55.488Z,95.61
2017-05-12T06:43:56.771Z,95.51
2017-05-12T06:44:58.028Z,96.32
2017-05-12T06:45:59.291Z,95.89
2017-05-12T06:47:00.570Z,96.51
2017-05-12T06:48:01.848Z,95.75
2017-05-12T06:49:03.064Z,96.13
2017-05-12T06:50:04.289Z,95.46
2017-05-12T06:51:05.570Z,95.46
2017-05-12T06:52:06.912Z,95.36
2017-05-12T06:53:08.175Z,95.27
2017-05-12T06:54:09.414Z,96.03
2017-05-12T06:55:10.699Z,95.65
2017-05-12T06:56:11.946Z,95.56
2017-05-12T06:57:13.186Z,95.94
2017-05-12T06:58:14.519Z,95.27
2017-05-12T06:59:15.777Z,95.27
2017-05-12T07:00:17.035Z,95.17
2017-05-12T07:01:18.289Z,95.17
2017-05-12T07:02:19.547Z,95.07
2017-05-12T07:03:20.887Z,94.6
2017-05-12T07:04:22.182Z,95.07
2017-05-12T07:05:23.424Z,94.7
2017-05-12T07:06:24.760Z,94.12
2017-05-12T07:07:26.023Z,95.27
2017-05-12T07:08:27.300Z,95.65
2017-05-12T07:09:28.569Z,95.27
2017-05-12T07:10:29.825Z,95.07
2017-05-12T07:11:31.109Z,95.27
2017-05-12T07:12:32.334Z,95.56
2017-05-12T07:13:33.585Z,95.17
2017-05-12T07:14:34.890Z,94.6
2017-05-12T07:15:36.115Z,94.5
2017-05-12T07:16:37.372Z,94.41
2017-05-12T07:17:38.843Z,94.89
2017-05-12T07:18:40.224Z,95.17
2017-05-12T07:19:41.491Z,95.36
2017-05-12T07:20:42.780Z,95.94
2017-05-12T07:21:44.051Z,96.18
2017-05-12T07:22:45.454Z,95.61
2017-05-12T07:23:46.745Z,95.7
2017-05-12T07:24:48.017Z,93.79
2017-05-12T07:25:49.270Z,94.45
2017-05-12T07:26:50.522Z,94.36
2017-05-12T07:27:51.763Z,94.74
2017-05-12T07:28:53.079Z,95.03
2017-05-12T07:29:54.324Z,94.65
2017-05-12T07:30:55.565Z,94.93
2017-05-12T07:31:56.823Z,95.89
2017-05-12T07:32:58.149Z,95.61
2017-05-12T07:33:59.398Z,97.23
2017-05-12T07:35:00.671Z,95.98
2017-05-12T07:36:01.951Z,95.61
2017-05-12T07:37:03.224Z,95.89
2017-05-12T07:38:04.506Z,95.98
2017-05-12T07:39:05.744Z,96.03
2017-05-12T07:40:07.003Z,96.42
2017-05-12T07:41:08.361Z,97.18
2017-05-12T07:42:09.730Z,96.42
2017-05-12T07:43:10.980Z,96.32
2017-05-12T07:44:12.262Z,97.08
2017-05-12T07:45:13.541Z,97.66
2017-05-12T07:46:14.929Z,97.08
2017-05-12T07:47:16.227Z,96.89
2017-05-12T07:48:17.494Z,97.08
2017-05-12T07:49:18.766Z,96.99
2017-05-12T07:50:19.992Z,97.08
2017-05-12T07:51:21.257Z,97.28
2017-05-12T07:52:22.724Z,97.37
2017-05-12T07:53:24.040Z,97.75
2017-05-12T07:54:25.258Z,98.04
2017-05-12T07:55:26.529Z,98.04
2017-05-12T07:56:27.806Z,98.24
2017-05-12T07:57:29.078Z,98.71
2017-05-12T07:58:30.368Z,98.52
2017-05-12T07:59:31.588Z,99
2017-05-12T08:00:32.861Z,98.81
2017-05-12T08:01:34.150Z,97.56
2017-05-12T08:02:35.472Z,98.52
2017-05-12T08:03:36.771Z,98.71
2017-05-12T08:04:38.072Z,98.14
2017-05-12T08:05:39.344Z,99
2017-05-12T08:06:40.570Z,99.1
2017-05-12T08:07:41.849Z,99
2017-05-12T08:08:43.140Z,99
2017-05-12T08:09:44.457Z,98.52
2017-05-12T08:10:45.704Z,98.9
2017-05-12T08:11:46.986Z,99.57
2017-05-12T08:12:48.226Z,99.99
2017-05-12T08:13:49.470Z,99.99
2017-05-12T08:14:50.762Z,99.99
2017-05-12T08:15:52.028Z,99.52
2017-05-12T08:16:53.359Z,99.05
2017-05-12T08:17:54.635Z,99.81
2017-05-12T08:18:55.903Z,99.72
2017-05-12T08:19:57.168Z,99.99
2017-05-12T08:20:58.443Z,99.91
2017-05-12T08:21:59.696Z,98.76
2017-05-12T08:23:00.965Z,99.91
2017-05-12T08:24:02.262Z,99.91
2017-05-12T08:25:03.484Z,99.24
2017-05-12T08:26:04.745Z,99.15
2017-05-12T08:27:05.990Z,98.76
2017-05-12T08:28:07.325Z,98.71
2017-05-12T08:29:08.723Z,97.33
2017-05-12T08:30:09.990Z,97.56
2017-05-12T08:31:11.279Z,97.56
2017-05-12T08:32:12.528Z,97.75
2017-05-12T08:33:13.798Z,97.09
2017-05-12T08:34:15.078Z,97.38
2017-05-12T08:35:16.344Z,97.47
2017-05-12T08:36:17.638Z,97.52
2017-05-12T08:37:18.882Z,96.66
2017-05-12T08:38:20.175Z,96.08
2017-05-12T08:39:21.491Z,95.12
2017-05-12T08:40:22.772Z,94.84
2017-05-12T08:41:24.132Z,94.5
2017-05-12T08:42:25.374Z,94.69
2017-05-12T08:43:26.617Z,95.26
2017-05-12T08:44:27.898Z,93.59
2017-05-12T08:45:29.173Z,94.74
2017-05-12T08:46:30.548Z,96.32
2017-05-12T08:47:31.804Z,95.46
2017-05-12T08:48:33.051Z,94.02
2017-05-12T08:49:34.313Z,90.95
2017-05-12T08:50:35.577Z,89.12
2017-05-12T08:51:36.813Z,88.17
2017-05-12T08:52:38.206Z,87.55
2017-05-12T08:53:39.352Z,88.51
2017-05-12T08:54:40.603Z,88.98
2017-05-12T08:55:41.855Z,90.14
2017-05-12T08:56:43.164Z,90.33
2017-05-12T08:57:44.603Z,89.08
2017-05-12T08:58:45.846Z,88.02
2017-05-12T08:59:47.173Z,89.08
2017-05-12T09:00:48.392Z,89.37
2017-05-12T09:01:49.682Z,89.65
2017-05-12T09:02:51.066Z,90.61
2017-05-12T09:03:52.352Z,91.09
2017-05-12T09:04:53.607Z,90.81
2017-05-12T09:05:54.874Z,90.81
2017-05-12T09:06:56.131Z,91.48
2017-05-12T09:07:57.400Z,91.28
2017-05-12T09:08:58.755Z,91.24
2017-05-12T09:09:59.989Z,90.09
2017-05-12T09:11:01.237Z,91.14
2017-05-12T09:12:02.582Z,90.95
2017-05-12T09:13:03.823Z,92.39
2017-05-12T09:14:05.161Z,91.91
2017-05-12T09:15:06.563Z,92.1
2017-05-12T09:16:07.797Z,93.16
2017-05-12T09:17:09.019Z,91.53
2017-05-12T09:18:10.296Z,92.92
2017-05-12T09:19:11.511Z,93.02
2017-05-12T09:20:12.828Z,93.06
2017-05-12T09:21:14.090Z,94.21
2017-05-12T09:22:15.334Z,94.07
2017-05-12T09:23:16.605Z,94.17
2017-05-12T09:24:17.934Z,93.35
2017-05-12T09:25:19.183Z,94.21
2017-05-12T09:26:20.442Z,94.69
2017-05-12T09:27:21.721Z,94.12
2017-05-12T09:28:22.987Z,93.49
2017-05-12T09:29:24.310Z,93.3
2017-05-12T09:30:25.534Z,92.72
2017-05-12T09:31:26.775Z,91.33
2017-05-12T09:32:28.066Z,91.42
2017-05-12T09:33:29.301Z,89.7
2017-05-12T09:34:30.533Z,88.35
2017-05-12T09:35:31.943Z,88.4
2017-05-12T09:36:33.243Z,87.73
2017-05-12T09:37:34.481Z,88.59
2017-05-12T09:38:35.753Z,87.82
2017-05-12T09:39:37.006Z,87.35
2017-05-12T09:40:38.321Z,87.54
2017-05-12T09:41:39.620Z,87.54
2017-05-12T09:42:40.855Z,85.04
2017-05-12T09:43:42.160Z,85.81
2017-05-12T09:44:43.413Z,84.7
2017-05-12T09:45:44.770Z,85.08
2017-05-12T09:46:46.099Z,84.6
2017-05-12T09:47:47.329Z,83.01
2017-05-12T09:48:48.625Z,81.86
2017-05-12T09:49:49.880Z,82.05
2017-05-12T09:50:51.157Z,81.76
2017-05-12T09:51:52.620Z,82.34
2017-05-12T09:52:53.945Z,82.48
2017-05-12T09:53:55.228Z,81.42
2017-05-12T09:54:56.460Z,81.13
2017-05-12T09:55:57.736Z,79.88
2017-05-12T09:56:59.003Z,80.17
2017-05-12T09:58:00.284Z,79.4
2017-05-12T09:59:01.541Z,78.73
2017-05-12T10:00:02.848Z,79.21
2017-05-12T10:01:04.127Z,78.73
2017-05-12T10:02:05.468Z,79.36
2017-05-12T10:03:06.743Z,79.36
2017-05-12T10:04:08.060Z,80.51
2017-05-12T10:05:09.313Z,79.75
2017-05-12T10:06:10.582Z,80.04
2017-05-12T10:07:11.870Z,80.42
2017-05-12T10:08:13.107Z,80.51
2017-05-12T10:09:14.405Z,80.8
2017-05-12T10:10:15.642Z,79.9
2017-05-12T10:11:16.909Z,81.05
2017-05-12T10:12:18.175Z,81.34
2017-05-12T10:13:19.448Z,81.96
2017-05-12T10:14:20.810Z,82.15
2017-05-12T10:15:22.082Z,82.05
2017-05-12T10:16:23.344Z,80.61
2017-05-12T10:17:24.594Z,81.05
2017-05-12T10:18:25.852Z,81.63
2017-05-12T10:19:27.114Z,82.59
2017-05-12T10:20:28.463Z,82.4
2017-05-12T10:21:29.729Z,82.49
2017-05-12T10:22:31.059Z,82.49
2017-05-12T10:23:32.289Z,83.16
2017-05-12T10:24:33.554Z,82.1
2017-05-12T10:25:34.918Z,82.1
2017-05-12T10:26:36.217Z,81.57
2017-05-12T10:27:37.530Z,82.53
2017-05-12T10:28:38.768Z,82.05
2017-05-12T10:29:40.040Z,80.8
2017-05-12T10:30:41.283Z,80.55
2017-05-12T10:31:42.524Z,78.98
2017-05-12T10:32:43.787Z,78.98
2017-05-12T10:33:45.068Z,80.61
2017-05-12T10:34:46.329Z,80.22
2017-05-12T10:35:47.578Z,80.42
2017-05-12T10:36:48.845Z,80.13
2017-05-12T10:37:50.124Z,79.88
2017-05-12T10:38:51.397Z,79.02
2017-05-12T10:39:52.754Z,79.3
2017-05-12T10:40:54.029Z,79.25
2017-05-12T10:41:55.288Z,77.9
2017-05-12T10:42:56.555Z,76.75
2017-05-12T10:43:57.813Z,76.26
2017-05-12T10:44:59.076Z,75.11
2017-05-12T10:46:00.390Z,75.11
2017-05-12T10:47:01.665Z,75.21
2017-05-12T10:48:02.935Z,73.8
2017-05-12T10:49:04.221Z,75.05
2017-05-12T10:50:05.573Z,72.68
2017-05-12T10:51:07.010Z,72.11
2017-05-12T10:52:08.237Z,72.49
2017-05-12T10:53:09.510Z,72.01
2017-05-12T10:54:10.822Z,71.34
2017-05-12T10:55:12.069Z,71.81
2017-05-12T10:56:13.514Z,71.47
2017-05-12T10:57:14.833Z,71.37
2017-05-12T10:58:16.191Z,69.54
2017-05-12T10:59:17.458Z,69.15
2017-05-12T11:00:18.683Z,70.02
2017-05-12T11:01:19.944Z,69.83
2017-05-12T11:02:21.192Z,70.31
2017-05-12T11:03:22.463Z,69.93
2017-05-12T11:04:23.720Z,69.15
2017-05-12T11:05:24.981Z,68.52
2017-05-12T11:06:26.245Z,67.36
2017-05-12T11:07:27.558Z,67.26
2017-05-12T11:08:28.850Z,67.84
2017-05-12T11:09:30.134Z,67.07
2017-05-12T11:10:31.383Z,66.14
2017-05-12T11:11:32.694Z,66.14
2017-05-12T11:12:33.959Z,65.2
2017-05-12T11:13:35.356Z,63.98
2017-05-12T11:14:36.625Z,62.34
2017-05-12T11:15:38.240Z,62.54
2017-05-12T11:16:39.431Z,62.54
2017-05-12T11:17:40.740Z,62.15
2017-05-12T11:18:42.017Z,61.47
2017-05-12T11:19:43.378Z,62.6
2017-05-12T11:20:44.617Z,63.37
2017-05-12T11:21:45.870Z,63.09
2017-05-12T11:22:47.225Z,63.06
2017-05-12T11:23:48.476Z,63.15
2017-05-12T11:24:49.738Z,63.98
2017-05-12T11:25:51.014Z,64.86
2017-05-12T11:26:52.316Z,64.66
2017-05-12T11:27:53.585Z,63.5
2017-05-12T11:28:54.827Z,64.28
2017-05-12T11:29:56.134Z,65.3
2017-05-12T11:30:57.485Z,65.59
2017-05-12T11:31:58.746Z,65.43
2017-05-12T11:33:00.048Z,65.78
2017-05-12T11:34:01.331Z,65.81
2017-05-12T11:35:02.553Z,65.08
2017-05-12T11:36:03.820Z,63.92
2017-05-12T11:37:05.177Z,63.37
2017-05-12T11:38:06.459Z,62.73
2017-05-12T11:39:07.687Z,62.05
2017-05-12T11:40:08.992Z,60.41
2017-05-12T11:41:10.225Z,59.93
2017-05-12T11:42:11.467Z,60.35
2017-05-12T11:43:12.893Z,59.48
2017-05-12T11:44:14.127Z,59.93
2017-05-12T11:45:15.391Z,60.68
2017-05-12T11:46:16.644Z,60.96
2017-05-12T11:47:17.905Z,61.35
2017-05-12T11:48:19.256Z,60.99
2017-05-12T11:49:20.569Z,60.51
2017-05-12T11:50:21.829Z,59.74
2017-05-12T11:51:23.078Z,59.48
2017-05-12T11:52:24.351Z,58.9
2017-05-12T11:53:25.648Z,58.54
2017-05-12T11:54:26.963Z,58.06
2017-05-12T11:55:28.232Z,58.12
2017-05-12T11:56:29.495Z,58.9
2017-05-12T11:57:30.784Z,57.06
2017-05-12T11:58:32.051Z,58.22
2017-05-12T11:59:33.427Z,58.12
2017-05-12T12:00:34.690Z,58.68
2017-05-12T12:01:36.030Z,58.87
2017-05-12T12:02:37.311Z,58.58
2017-05-12T12:03:38.583Z,58.58
2017-05-12T12:04:39.833Z,58.87
2017-05-12T12:05:41.085Z,59.64
2017-05-12T12:06:42.347Z,59.45
2017-05-12T12:07:43.629Z,58.9
2017-05-12T12:08:44.913Z,57.54
2017-05-12T12:09:46.201Z,57.93
2017-05-12T12:10:47.575Z,58.54
2017-05-12T12:11:48.934Z,57.57
2017-05-12T12:12:50.188Z,55.52
2017-05-12T12:13:51.491Z,55.62
2017-05-12T12:14:52.750Z,55.13
2017-05-12T12:15:53.992Z,55.71
2017-05-12T12:16:55.305Z,55.33
2017-05-12T12:17:56.577Z,55.9
2017-05-12T12:18:57.856Z,55.52
2017-05-12T12:19:59.122Z,54.97
2017-05-12T12:21:00.379Z,55.55
2017-05-12T12:22:01.629Z,55.83
2017-05-12T12:23:02.901Z,54.97
2017-05-12T12:24:04.154Z,54.94
2017-05-12T12:25:05.440Z,53.49
2017-05-12T12:26:06.684Z,55.04
2017-05-12T12:27:07.950Z,54.07
2017-05-12T12:28:09.276Z,54.27
2017-05-12T12:29:10.689Z,54.87
2017-05-12T12:30:11.945Z,54.58
2017-05-12T12:31:13.204Z,54.39
2017-05-12T12:32:14.491Z,53.91
2017-05-12T12:33:15.728Z,53.33
2017-05-12T12:34:17.009Z,52.75
2017-05-12T12:35:18.307Z,52.55
2017-05-12T12:36:19.581Z,53.33
2017-05-12T12:37:20.916Z,53.06
2017-05-12T12:38:22.125Z,51.32
2017-05-12T12:39:23.415Z,51.01
2017-05-12T12:40:24.817Z,50.93
2017-05-12T12:41:25.957Z,50.55
2017-05-12T12:42:27.253Z,50.07
2017-05-12T12:43:28.520Z,51.23
2017-05-12T12:44:29.753Z,50.55
2017-05-12T12:45:31.020Z,50.65
2017-05-12T12:46:32.291Z,50.26
2017-05-12T12:47:33.646Z,50.38
2017-05-12T12:48:34.922Z,49.58
2017-05-12T12:49:36.198Z,53.23
2017-05-12T12:50:37.472Z,55.33
2017-05-12T12:51:38.726Z,56.2
2017-05-12T12:52:39.987Z,56.58
2017-05-12T12:53:41.320Z,56.1
2017-05-12T12:54:42.651Z,56
2017-05-12T12:55:43.950Z,52.89
2017-05-12T12:56:45.243Z,52.21
2017-05-12T12:57:46.525Z,52.59
2017-05-12T12:58:47.786Z,52.4
2017-05-12T12:59:49.039Z,52.4
2017-05-12T13:00:50.319Z,52.98
2017-05-12T13:01:51.586Z,52.89
2017-05-12T13:02:52.829Z,53.37
2017-05-12T13:03:54.124Z,54.33
2017-05-12T13:04:55.426Z,54.53
2017-05-12T13:05:56.750Z,55.59
2017-05-12T13:06:58.003Z,54.53
2017-05-12T13:07:59.281Z,55.66
2017-05-12T13:09:00.519Z,57.65
2017-05-12T13:10:01.789Z,59.2
2017-05-12T13:11:03.079Z,61.55
2017-05-12T13:12:04.335Z,63.54